sensor_id;sensor_type;location;lat;lon;timestamp;P1;durP1;ratioP1;P2;durP2;ratioP2
79562;SDS011;69026;50.980;11.314;2023-05-08T00:01:14;2.97;;;1.85;;
79562;SDS011;69026;50.980;11.314;2023-05-08T00:03:40;3.28;;;2.15;;
79562;SDS011;69026;50.980;11.314;2023-05-08T00:06:07;2.47;;;2.08;;
79562;SDS011;69026;50.980;11.314;2023-05-08T00:08:33;2.60;;;2.17;;
79562;SDS011;69026;50.980;11.314;2023-05-08T00:10:59;4.35;;;2.72;;
79562;SDS011;69026;50.980;11.314;2023-05-08T00:13:25;2.38;;;1.95;;
79562;SDS011;69026;50.980;11.314;2023-05-08T00:15:51;2.92;;;2.33;;
79562;SDS011;69026;50.980;11.314;2023-05-08T00:18:16;2.85;;;2.30;;
79562;SDS011;69026;50.980;11.314;2023-05-08T00:20:42;3.03;;;2.03;;
79562;SDS011;69026;50.980;11.314;2023-05-08T00:23:08;5.35;;;2.40;;
79562;SDS011;69026;50.980;11.314;2023-05-08T00:25:34;2.95;;;2.13;;
79562;SDS011;69026;50.980;11.314;2023-05-08T00:28:00;2.35;;;2.03;;
79562;SDS011;69026;50.980;11.314;2023-05-08T00:30:26;4.53;;;2.25;;
79562;SDS011;69026;50.980;11.314;2023-05-08T00:32:51;2.65;;;2.10;;
79562;SDS011;69026;50.980;11.314;2023-05-08T00:35:18;2.50;;;2.30;;
79562;SDS011;69026;50.980;11.314;2023-05-08T00:37:44;2.30;;;1.95;;
79562;SDS011;69026;50.980;11.314;2023-05-08T00:40:10;3.30;;;2.15;;
79562;SDS011;69026;50.980;11.314;2023-05-08T00:42:36;2.70;;;2.00;;
79562;SDS011;69026;50.980;11.314;2023-05-08T00:45:02;2.92;;;2.17;;
79562;SDS011;69026;50.980;11.314;2023-05-08T00:47:30;2.83;;;2.40;;
79562;SDS011;69026;50.980;11.314;2023-05-08T00:49:56;2.35;;;1.90;;
79562;SDS011;69026;50.980;11.314;2023-05-08T00:52:23;2.90;;;2.20;;
79562;SDS011;69026;50.980;11.314;2023-05-08T00:54:52;2.67;;;1.90;;
79562;SDS011;69026;50.980;11.314;2023-05-08T00:57:18;2.92;;;2.15;;
79562;SDS011;69026;50.980;11.314;2023-05-08T00:59:47;3.03;;;2.38;;
79562;SDS011;69026;50.980;11.314;2023-05-08T01:02:14;2.35;;;2.15;;
79562;SDS011;69026;50.980;11.314;2023-05-08T01:04:40;2.80;;;2.08;;
79562;SDS011;69026;50.980;11.314;2023-05-08T01:07:09;2.35;;;2.05;;
79562;SDS011;69026;50.980;11.314;2023-05-08T01:09:35;3.42;;;2.33;;
79562;SDS011;69026;50.980;11.314;2023-05-08T01:17:23;2.63;;;2.05;;
79562;SDS011;69026;50.980;11.314;2023-05-08T01:20:27;2.28;;;1.95;;
79562;SDS011;69026;50.980;11.314;2023-05-08T01:23:26;2.85;;;2.15;;
79562;SDS011;69026;50.980;11.314;2023-05-08T01:29:42;2.67;;;2.00;;
79562;SDS011;69026;50.980;11.314;2023-05-08T01:32:24;3.47;;;2.60;;
79562;SDS011;69026;50.980;11.314;2023-05-08T01:38:02;3.08;;;2.53;;
79562;SDS011;69026;50.980;11.314;2023-05-08T01:40:36;3.35;;;2.20;;
79562;SDS011;69026;50.980;11.314;2023-05-08T01:43:29;2.72;;;2.30;;
79562;SDS011;69026;50.980;11.314;2023-05-08T01:46:02;2.53;;;2.17;;
79562;SDS011;69026;50.980;11.314;2023-05-08T01:48:33;2.55;;;1.98;;
79562;SDS011;69026;50.980;11.314;2023-05-08T01:51:04;3.28;;;2.40;;
79562;SDS011;69026;50.980;11.314;2023-05-08T01:53:42;3.25;;;2.45;;
79562;SDS011;69026;50.980;11.314;2023-05-08T01:56:13;2.90;;;2.33;;
79562;SDS011;69026;50.980;11.314;2023-05-08T01:58:44;2.38;;;2.10;;
79562;SDS011;69026;50.980;11.314;2023-05-08T02:01:11;2.60;;;2.22;;
79562;SDS011;69026;50.980;11.314;2023-05-08T02:03:38;2.75;;;2.03;;
79562;SDS011;69026;50.980;11.314;2023-05-08T02:06:08;2.90;;;2.30;;
79562;SDS011;69026;50.980;11.314;2023-05-08T02:08:36;3.10;;;2.15;;
79562;SDS011;69026;50.980;11.314;2023-05-08T02:11:03;3.10;;;2.25;;
79562;SDS011;69026;50.980;11.314;2023-05-08T02:13:30;3.15;;;2.38;;
79562;SDS011;69026;50.980;11.314;2023-05-08T02:15:59;3.15;;;2.38;;
79562;SDS011;69026;50.980;11.314;2023-05-08T02:18:26;3.22;;;2.40;;
79562;SDS011;69026;50.980;11.314;2023-05-08T02:20:56;3.80;;;2.20;;
79562;SDS011;69026;50.980;11.314;2023-05-08T02:25:51;3.15;;;2.40;;
79562;SDS011;69026;50.980;11.314;2023-05-08T02:28:18;3.58;;;2.50;;
79562;SDS011;69026;50.980;11.314;2023-05-08T02:30:46;2.28;;;1.90;;
79562;SDS011;69026;50.980;11.314;2023-05-08T02:33:14;3.10;;;2.42;;
79562;SDS011;69026;50.980;11.314;2023-05-08T02:35:42;3.08;;;2.17;;
79562;SDS011;69026;50.980;11.314;2023-05-08T02:38:09;3.30;;;2.40;;
79562;SDS011;69026;50.980;11.314;2023-05-08T02:40:37;4.47;;;2.80;;
79562;SDS011;69026;50.980;11.314;2023-05-08T02:43:10;3.00;;;2.28;;
79562;SDS011;69026;50.980;11.314;2023-05-08T02:45:44;3.22;;;2.33;;
79562;SDS011;69026;50.980;11.314;2023-05-08T02:51:22;3.20;;;2.25;;
79562;SDS011;69026;50.980;11.314;2023-05-08T02:54:13;3.25;;;2.25;;
79562;SDS011;69026;50.980;11.314;2023-05-08T02:57:13;4.07;;;2.55;;
79562;SDS011;69026;50.980;11.314;2023-05-08T02:59:58;2.25;;;2.05;;
79562;SDS011;69026;50.980;11.314;2023-05-08T03:06:01;2.78;;;2.05;;
79562;SDS011;69026;50.980;11.314;2023-05-08T03:08:33;2.63;;;2.00;;
79562;SDS011;69026;50.980;11.314;2023-05-08T03:11:01;3.50;;;2.45;;
79562;SDS011;69026;50.980;11.314;2023-05-08T03:13:33;2.97;;;2.33;;
79562;SDS011;69026;50.980;11.314;2023-05-08T03:16:02;3.45;;;2.50;;
79562;SDS011;69026;50.980;11.314;2023-05-08T03:18:31;3.58;;;2.45;;
79562;SDS011;69026;50.980;11.314;2023-05-08T03:21:01;3.20;;;2.42;;
79562;SDS011;69026;50.980;11.314;2023-05-08T03:23:30;3.40;;;2.40;;
79562;SDS011;69026;50.980;11.314;2023-05-08T03:26:00;3.17;;;2.60;;
79562;SDS011;69026;50.980;11.314;2023-05-08T03:28:27;2.70;;;2.10;;
79562;SDS011;69026;50.980;11.314;2023-05-08T03:30:57;3.10;;;2.40;;
79562;SDS011;69026;50.980;11.314;2023-05-08T03:33:23;3.50;;;2.38;;
79562;SDS011;69026;50.980;11.314;2023-05-08T03:35:52;3.60;;;2.45;;
79562;SDS011;69026;50.980;11.314;2023-05-08T03:38:19;3.03;;;2.10;;
79562;SDS011;69026;50.980;11.314;2023-05-08T03:40:46;2.97;;;2.17;;
79562;SDS011;69026;50.980;11.314;2023-05-08T03:43:14;2.53;;;2.17;;
79562;SDS011;69026;50.980;11.314;2023-05-08T03:45:42;3.10;;;2.35;;
79562;SDS011;69026;50.980;11.314;2023-05-08T03:48:09;3.00;;;2.35;;
79562;SDS011;69026;50.980;11.314;2023-05-08T03:50:36;3.85;;;2.45;;
79562;SDS011;69026;50.980;11.314;2023-05-08T03:53:04;2.67;;;2.25;;
79562;SDS011;69026;50.980;11.314;2023-05-08T03:55:30;3.97;;;2.72;;
79562;SDS011;69026;50.980;11.314;2023-05-08T04:00:40;3.33;;;2.33;;
79562;SDS011;69026;50.980;11.314;2023-05-08T04:03:27;3.30;;;2.40;;
79562;SDS011;69026;50.980;11.314;2023-05-08T04:06:23;3.38;;;2.65;;
79562;SDS011;69026;50.980;11.314;2023-05-08T04:09:00;3.40;;;2.50;;
79562;SDS011;69026;50.980;11.314;2023-05-08T04:11:31;2.58;;;1.98;;
79562;SDS011;69026;50.980;11.314;2023-05-08T04:14:05;3.03;;;2.35;;
79562;SDS011;69026;50.980;11.314;2023-05-08T04:16:38;2.97;;;2.60;;
79562;SDS011;69026;50.980;11.314;2023-05-08T04:19:14;3.38;;;2.72;;
79562;SDS011;69026;50.980;11.314;2023-05-08T04:21:49;2.83;;;2.38;;
79562;SDS011;69026;50.980;11.314;2023-05-08T04:24:20;4.05;;;2.40;;
79562;SDS011;69026;50.980;11.314;2023-05-08T04:26:47;3.72;;;2.40;;
79562;SDS011;69026;50.980;11.314;2023-05-08T04:29:14;2.85;;;2.55;;
79562;SDS011;69026;50.980;11.314;2023-05-08T04:31:42;3.45;;;2.42;;
79562;SDS011;69026;50.980;11.314;2023-05-08T04:34:09;3.00;;;2.25;;
79562;SDS011;69026;50.980;11.314;2023-05-08T04:36:35;2.72;;;2.30;;
79562;SDS011;69026;50.980;11.314;2023-05-08T04:39:03;2.97;;;1.90;;
79562;SDS011;69026;50.980;11.314;2023-05-08T04:41:30;2.67;;;2.20;;
79562;SDS011;69026;50.980;11.314;2023-05-08T04:43:56;2.78;;;2.08;;
79562;SDS011;69026;50.980;11.314;2023-05-08T04:46:22;3.53;;;2.40;;
79562;SDS011;69026;50.980;11.314;2023-05-08T04:48:49;2.92;;;2.33;;
79562;SDS011;69026;50.980;11.314;2023-05-08T04:51:16;3.47;;;2.35;;
79562;SDS011;69026;50.980;11.314;2023-05-08T04:53:42;2.83;;;1.88;;
79562;SDS011;69026;50.980;11.314;2023-05-08T04:56:08;2.75;;;2.08;;
79562;SDS011;69026;50.980;11.314;2023-05-08T04:58:33;2.70;;;2.42;;
79562;SDS011;69026;50.980;11.314;2023-05-08T05:01:03;2.88;;;2.22;;
79562;SDS011;69026;50.980;11.314;2023-05-08T05:03:30;3.75;;;2.80;;
79562;SDS011;69026;50.980;11.314;2023-05-08T05:05:56;3.10;;;2.22;;
79562;SDS011;69026;50.980;11.314;2023-05-08T05:08:24;3.22;;;2.38;;
79562;SDS011;69026;50.980;11.314;2023-05-08T05:10:50;2.55;;;2.00;;
79562;SDS011;69026;50.980;11.314;2023-05-08T05:13:16;3.25;;;2.10;;
79562;SDS011;69026;50.980;11.314;2023-05-08T05:15:42;2.88;;;2.22;;
79562;SDS011;69026;50.980;11.314;2023-05-08T05:18:08;2.83;;;2.10;;
79562;SDS011;69026;50.980;11.314;2023-05-08T05:20:34;3.50;;;2.78;;
79562;SDS011;69026;50.980;11.314;2023-05-08T05:23:00;3.20;;;2.55;;
79562;SDS011;69026;50.980;11.314;2023-05-08T05:25:26;3.10;;;2.40;;
79562;SDS011;69026;50.980;11.314;2023-05-08T05:27:52;3.25;;;2.45;;
79562;SDS011;69026;50.980;11.314;2023-05-08T05:30:18;2.72;;;2.25;;
79562;SDS011;69026;50.980;11.314;2023-05-08T05:32:44;3.20;;;2.33;;
79562;SDS011;69026;50.980;11.314;2023-05-08T05:35:10;2.83;;;2.20;;
79562;SDS011;69026;50.980;11.314;2023-05-08T05:37:36;2.83;;;2.40;;
79562;SDS011;69026;50.980;11.314;2023-05-08T05:40:02;2.60;;;1.92;;
79562;SDS011;69026;50.980;11.314;2023-05-08T05:42:30;3.47;;;2.50;;
79562;SDS011;69026;50.980;11.314;2023-05-08T05:44:56;3.78;;;2.45;;
79562;SDS011;69026;50.980;11.314;2023-05-08T05:47:23;3.30;;;2.22;;
79562;SDS011;69026;50.980;11.314;2023-05-08T05:49:50;2.38;;;2.15;;
79562;SDS011;69026;50.980;11.314;2023-05-08T05:52:16;2.75;;;2.33;;
79562;SDS011;69026;50.980;11.314;2023-05-08T05:54:42;2.78;;;2.20;;
79562;SDS011;69026;50.980;11.314;2023-05-08T05:57:08;2.75;;;2.40;;
79562;SDS011;69026;50.980;11.314;2023-05-08T05:59:34;3.13;;;2.30;;
79562;SDS011;69026;50.980;11.314;2023-05-08T06:02:00;3.28;;;2.55;;
79562;SDS011;69026;50.980;11.314;2023-05-08T06:04:26;2.53;;;2.17;;
79562;SDS011;69026;50.980;11.314;2023-05-08T06:06:52;2.58;;;2.08;;
79562;SDS011;69026;50.980;11.314;2023-05-08T06:09:17;4.07;;;2.80;;
79562;SDS011;69026;50.980;11.314;2023-05-08T06:11:43;5.07;;;2.83;;
79562;SDS011;69026;50.980;11.314;2023-05-08T06:14:09;2.67;;;2.20;;
79562;SDS011;69026;50.980;11.314;2023-05-08T06:16:36;3.30;;;2.45;;
79562;SDS011;69026;50.980;11.314;2023-05-08T06:19:02;3.50;;;2.58;;
79562;SDS011;69026;50.980;11.314;2023-05-08T06:21:29;3.13;;;2.72;;
79562;SDS011;69026;50.980;11.314;2023-05-08T06:23:55;3.67;;;2.58;;
79562;SDS011;69026;50.980;11.314;2023-05-08T06:26:20;3.67;;;2.78;;
79562;SDS011;69026;50.980;11.314;2023-05-08T06:28:47;3.78;;;2.50;;
79562;SDS011;69026;50.980;11.314;2023-05-08T06:31:13;2.85;;;2.22;;
79562;SDS011;69026;50.980;11.314;2023-05-08T06:33:38;4.32;;;2.92;;
79562;SDS011;69026;50.980;11.314;2023-05-08T06:36:04;2.45;;;2.22;;
79562;SDS011;69026;50.980;11.314;2023-05-08T06:38:31;3.50;;;2.28;;
79562;SDS011;69026;50.980;11.314;2023-05-08T06:40:56;3.55;;;2.78;;
79562;SDS011;69026;50.980;11.314;2023-05-08T06:43:22;3.83;;;2.15;;
79562;SDS011;69026;50.980;11.314;2023-05-08T06:45:48;4.78;;;2.60;;
79562;SDS011;69026;50.980;11.314;2023-05-08T06:48:14;3.03;;;2.13;;
79562;SDS011;69026;50.980;11.314;2023-05-08T06:50:40;2.90;;;2.13;;
79562;SDS011;69026;50.980;11.314;2023-05-08T06:53:06;3.38;;;2.55;;
79562;SDS011;69026;50.980;11.314;2023-05-08T06:55:32;2.70;;;2.10;;
79562;SDS011;69026;50.980;11.314;2023-05-08T06:57:58;4.30;;;2.78;;
79562;SDS011;69026;50.980;11.314;2023-05-08T07:00:24;2.67;;;2.30;;
79562;SDS011;69026;50.980;11.314;2023-05-08T07:02:50;3.05;;;2.40;;
79562;SDS011;69026;50.980;11.314;2023-05-08T07:05:16;4.00;;;2.70;;
79562;SDS011;69026;50.980;11.314;2023-05-08T07:07:44;3.33;;;2.10;;
79562;SDS011;69026;50.980;11.314;2023-05-08T07:10:10;2.97;;;2.20;;
79562;SDS011;69026;50.980;11.314;2023-05-08T07:12:36;3.65;;;2.45;;
79562;SDS011;69026;50.980;11.314;2023-05-08T07:15:02;3.67;;;2.60;;
79562;SDS011;69026;50.980;11.314;2023-05-08T07:17:28;5.20;;;2.75;;
79562;SDS011;69026;50.980;11.314;2023-05-08T07:19:55;3.40;;;2.30;;
79562;SDS011;69026;50.980;11.314;2023-05-08T07:22:20;3.13;;;2.42;;
79562;SDS011;69026;50.980;11.314;2023-05-08T07:24:46;4.90;;;2.53;;
79562;SDS011;69026;50.980;11.314;2023-05-08T07:27:12;3.17;;;2.40;;
79562;SDS011;69026;50.980;11.314;2023-05-08T07:29:39;2.83;;;2.17;;
79562;SDS011;69026;50.980;11.314;2023-05-08T07:32:06;3.17;;;2.53;;
79562;SDS011;69026;50.980;11.314;2023-05-08T07:34:32;2.97;;;2.40;;
79562;SDS011;69026;50.980;11.314;2023-05-08T07:36:59;4.07;;;2.55;;
79562;SDS011;69026;50.980;11.314;2023-05-08T07:39:24;3.15;;;2.45;;
79562;SDS011;69026;50.980;11.314;2023-05-08T07:41:50;4.15;;;2.50;;
79562;SDS011;69026;50.980;11.314;2023-05-08T07:44:16;5.28;;;2.78;;
79562;SDS011;69026;50.980;11.314;2023-05-08T07:46:42;5.45;;;2.70;;
79562;SDS011;69026;50.980;11.314;2023-05-08T07:49:07;2.92;;;2.35;;
79562;SDS011;69026;50.980;11.314;2023-05-08T07:51:33;4.22;;;2.47;;
79562;SDS011;69026;50.980;11.314;2023-05-08T07:53:59;4.25;;;2.78;;
79562;SDS011;69026;50.980;11.314;2023-05-08T07:56:25;3.28;;;2.42;;
79562;SDS011;69026;50.980;11.314;2023-05-08T07:58:51;3.45;;;2.40;;
79562;SDS011;69026;50.980;11.314;2023-05-08T08:01:17;3.75;;;2.50;;
79562;SDS011;69026;50.980;11.314;2023-05-08T08:03:44;3.42;;;2.15;;
79562;SDS011;69026;50.980;11.314;2023-05-08T08:06:10;3.30;;;2.33;;
79562;SDS011;69026;50.980;11.314;2023-05-08T08:08:36;2.67;;;2.00;;
79562;SDS011;69026;50.980;11.314;2023-05-08T08:11:03;3.42;;;2.17;;
79562;SDS011;69026;50.980;11.314;2023-05-08T08:13:30;3.47;;;2.67;;
79562;SDS011;69026;50.980;11.314;2023-05-08T08:15:57;2.92;;;2.22;;
79562;SDS011;69026;50.980;11.314;2023-05-08T08:18:23;6.38;;;2.70;;
79562;SDS011;69026;50.980;11.314;2023-05-08T08:20:49;2.38;;;1.95;;
79562;SDS011;69026;50.980;11.314;2023-05-08T08:23:15;2.88;;;2.47;;
79562;SDS011;69026;50.980;11.314;2023-05-08T08:25:41;3.97;;;2.13;;
79562;SDS011;69026;50.980;11.314;2023-05-08T08:28:07;3.75;;;2.72;;
79562;SDS011;69026;50.980;11.314;2023-05-08T08:30:33;3.13;;;2.42;;
79562;SDS011;69026;50.980;11.314;2023-05-08T08:32:59;3.47;;;2.67;;
79562;SDS011;69026;50.980;11.314;2023-05-08T08:35:29;4.18;;;2.60;;
79562;SDS011;69026;50.980;11.314;2023-05-08T08:37:56;4.03;;;2.40;;
79562;SDS011;69026;50.980;11.314;2023-05-08T08:40:22;3.40;;;2.63;;
79562;SDS011;69026;50.980;11.314;2023-05-08T08:42:48;3.75;;;2.60;;
79562;SDS011;69026;50.980;11.314;2023-05-08T08:45:14;3.67;;;2.55;;
79562;SDS011;69026;50.980;11.314;2023-05-08T08:47:40;3.67;;;2.47;;
79562;SDS011;69026;50.980;11.314;2023-05-08T08:50:09;3.47;;;2.50;;
79562;SDS011;69026;50.980;11.314;2023-05-08T08:55:09;6.10;;;3.20;;
79562;SDS011;69026;50.980;11.314;2023-05-08T08:57:50;4.45;;;3.15;;
79562;SDS011;69026;50.980;11.314;2023-05-08T09:00:22;4.53;;;3.10;;
79562;SDS011;69026;50.980;11.314;2023-05-08T09:02:54;4.65;;;3.03;;
79562;SDS011;69026;50.980;11.314;2023-05-08T09:05:21;4.25;;;3.13;;
79562;SDS011;69026;50.980;11.314;2023-05-08T09:07:48;5.95;;;3.60;;
79562;SDS011;69026;50.980;11.314;2023-05-08T09:10:15;5.65;;;3.15;;
79562;SDS011;69026;50.980;11.314;2023-05-08T09:12:41;4.72;;;2.90;;
79562;SDS011;69026;50.980;11.314;2023-05-08T09:15:09;4.78;;;3.28;;
79562;SDS011;69026;50.980;11.314;2023-05-08T09:17:35;4.55;;;3.40;;
79562;SDS011;69026;50.980;11.314;2023-05-08T09:20:01;4.30;;;3.28;;
79562;SDS011;69026;50.980;11.314;2023-05-08T09:22:28;4.63;;;2.75;;
79562;SDS011;69026;50.980;11.314;2023-05-08T09:27:22;4.43;;;2.65;;
79562;SDS011;69026;50.980;11.314;2023-05-08T09:29:59;3.47;;;2.85;;
79562;SDS011;69026;50.980;11.314;2023-05-08T09:32:28;6.43;;;3.05;;
79562;SDS011;69026;50.980;11.314;2023-05-08T09:34:57;3.88;;;3.15;;
79562;SDS011;69026;50.980;11.314;2023-05-08T09:37:23;3.25;;;2.55;;
79562;SDS011;69026;50.980;11.314;2023-05-08T09:39:50;5.93;;;2.95;;
79562;SDS011;69026;50.980;11.314;2023-05-08T09:42:16;4.18;;;3.70;;
79562;SDS011;69026;50.980;11.314;2023-05-08T09:44:46;5.47;;;3.30;;
79562;SDS011;69026;50.980;11.314;2023-05-08T09:47:16;4.15;;;3.03;;
79562;SDS011;69026;50.980;11.314;2023-05-08T09:50:06;5.50;;;3.00;;
79562;SDS011;69026;50.980;11.314;2023-05-08T09:52:34;4.28;;;2.75;;
79562;SDS011;69026;50.980;11.314;2023-05-08T09:57:27;4.30;;;2.97;;
79562;SDS011;69026;50.980;11.314;2023-05-08T10:00:01;4.20;;;3.17;;
79562;SDS011;69026;50.980;11.314;2023-05-08T10:02:36;4.65;;;3.28;;
79562;SDS011;69026;50.980;11.314;2023-05-08T10:05:04;4.63;;;3.05;;
79562;SDS011;69026;50.980;11.314;2023-05-08T10:07:48;4.72;;;2.80;;
79562;SDS011;69026;50.980;11.314;2023-05-08T10:10:14;4.38;;;2.95;;
79562;SDS011;69026;50.980;11.314;2023-05-08T10:12:48;5.28;;;2.95;;
79562;SDS011;69026;50.980;11.314;2023-05-08T10:15:14;4.22;;;2.75;;
79562;SDS011;69026;50.980;11.314;2023-05-08T10:17:41;4.15;;;3.13;;
79562;SDS011;69026;50.980;11.314;2023-05-08T10:20:15;4.25;;;3.22;;
79562;SDS011;69026;50.980;11.314;2023-05-08T10:22:44;4.00;;;3.33;;
79562;SDS011;69026;50.980;11.314;2023-05-08T10:25:16;4.30;;;3.05;;
79562;SDS011;69026;50.980;11.314;2023-05-08T10:27:47;5.50;;;3.38;;
79562;SDS011;69026;50.980;11.314;2023-05-08T10:30:32;4.68;;;3.28;;
79562;SDS011;69026;50.980;11.314;2023-05-08T10:33:02;8.27;;;3.38;;
79562;SDS011;69026;50.980;11.314;2023-05-08T10:35:33;5.55;;;3.33;;
79562;SDS011;69026;50.980;11.314;2023-05-08T10:38:02;5.18;;;3.10;;
79562;SDS011;69026;50.980;11.314;2023-05-08T10:40:28;5.63;;;3.03;;
79562;SDS011;69026;50.980;11.314;2023-05-08T10:42:54;6.53;;;2.88;;
79562;SDS011;69026;50.980;11.314;2023-05-08T10:45:22;4.80;;;3.35;;
79562;SDS011;69026;50.980;11.314;2023-05-08T10:53:37;4.65;;;3.00;;
79562;SDS011;69026;50.980;11.314;2023-05-08T10:56:08;4.15;;;2.92;;
79562;SDS011;69026;50.980;11.314;2023-05-08T10:58:35;5.38;;;3.60;;
79562;SDS011;69026;50.980;11.314;2023-05-08T11:06:03;4.43;;;3.33;;
79562;SDS011;69026;50.980;11.314;2023-05-08T11:08:29;4.60;;;3.05;;
79562;SDS011;69026;50.980;11.314;2023-05-08T11:13:30;4.35;;;3.33;;
79562;SDS011;69026;50.980;11.314;2023-05-08T11:15:58;4.43;;;2.92;;
79562;SDS011;69026;50.980;11.314;2023-05-08T11:18:24;4.68;;;3.40;;
79562;SDS011;69026;50.980;11.314;2023-05-08T11:20:54;5.20;;;3.45;;
79562;SDS011;69026;50.980;11.314;2023-05-08T11:23:33;6.07;;;3.90;;
79562;SDS011;69026;50.980;11.314;2023-05-08T11:26:04;4.10;;;3.15;;
79562;SDS011;69026;50.980;11.314;2023-05-08T11:28:38;4.97;;;3.15;;
79562;SDS011;69026;50.980;11.314;2023-05-08T11:31:27;4.32;;;3.00;;
79562;SDS011;69026;50.980;11.314;2023-05-08T11:37:10;6.53;;;3.47;;
79562;SDS011;69026;50.980;11.314;2023-05-08T11:39:41;5.07;;;3.00;;
79562;SDS011;69026;50.980;11.314;2023-05-08T11:45:02;4.65;;;3.28;;
79562;SDS011;69026;50.980;11.314;2023-05-08T11:50:08;4.82;;;3.45;;
79562;SDS011;69026;50.980;11.314;2023-05-08T11:52:35;4.75;;;3.45;;
79562;SDS011;69026;50.980;11.314;2023-05-08T11:55:09;5.00;;;3.22;;
79562;SDS011;69026;50.980;11.314;2023-05-08T11:57:37;4.75;;;3.95;;
79562;SDS011;69026;50.980;11.314;2023-05-08T12:00:03;4.93;;;3.63;;
79562;SDS011;69026;50.980;11.314;2023-05-08T12:02:36;5.85;;;3.72;;
79562;SDS011;69026;50.980;11.314;2023-05-08T12:05:03;4.55;;;3.50;;
79562;SDS011;69026;50.980;11.314;2023-05-08T12:07:30;5.13;;;3.85;;
79562;SDS011;69026;50.980;11.314;2023-05-08T12:09:56;5.05;;;4.43;;
79562;SDS011;69026;50.980;11.314;2023-05-08T12:12:22;4.80;;;3.78;;
79562;SDS011;69026;50.980;11.314;2023-05-08T12:14:48;5.80;;;3.60;;
79562;SDS011;69026;50.980;11.314;2023-05-08T12:17:16;7.88;;;3.42;;
79562;SDS011;69026;50.980;11.314;2023-05-08T12:19:43;3.22;;;2.92;;
79562;SDS011;69026;50.980;11.314;2023-05-08T12:22:09;4.53;;;4.05;;
79562;SDS011;69026;50.980;11.314;2023-05-08T12:24:34;4.50;;;3.13;;
79562;SDS011;69026;50.980;11.314;2023-05-08T12:27:00;3.60;;;3.00;;
79562;SDS011;69026;50.980;11.314;2023-05-08T12:29:26;3.97;;;3.63;;
79562;SDS011;69026;50.980;11.314;2023-05-08T12:31:52;6.00;;;3.53;;
79562;SDS011;69026;50.980;11.314;2023-05-08T12:34:18;5.43;;;3.58;;
79562;SDS011;69026;50.980;11.314;2023-05-08T12:36:45;5.25;;;3.60;;
79562;SDS011;69026;50.980;11.314;2023-05-08T12:39:11;3.15;;;2.85;;
79562;SDS011;69026;50.980;11.314;2023-05-08T12:41:48;4.07;;;3.67;;
79562;SDS011;69026;50.980;11.314;2023-05-08T12:44:17;3.90;;;3.55;;
79562;SDS011;69026;50.980;11.314;2023-05-08T12:49:22;3.55;;;3.10;;
79562;SDS011;69026;50.980;11.314;2023-05-08T12:51:49;4.65;;;3.45;;
79562;SDS011;69026;50.980;11.314;2023-05-08T12:54:15;3.65;;;3.22;;
79562;SDS011;69026;50.980;11.314;2023-05-08T12:56:41;3.47;;;3.10;;
79562;SDS011;69026;50.980;11.314;2023-05-08T12:59:08;3.75;;;3.35;;
79562;SDS011;69026;50.980;11.314;2023-05-08T13:01:34;4.43;;;3.35;;
79562;SDS011;69026;50.980;11.314;2023-05-08T13:04:00;3.30;;;3.00;;
79562;SDS011;69026;50.980;11.314;2023-05-08T13:06:26;3.50;;;3.20;;
79562;SDS011;69026;50.980;11.314;2023-05-08T13:08:53;4.28;;;3.45;;
79562;SDS011;69026;50.980;11.314;2023-05-08T13:11:29;4.50;;;3.13;;
79562;SDS011;69026;50.980;11.314;2023-05-08T13:13:56;4.05;;;3.25;;
79562;SDS011;69026;50.980;11.314;2023-05-08T13:16:21;4.47;;;3.35;;
79562;SDS011;69026;50.980;11.314;2023-05-08T13:18:47;4.13;;;3.70;;
79562;SDS011;69026;50.980;11.314;2023-05-08T13:21:13;3.40;;;3.10;;
79562;SDS011;69026;50.980;11.314;2023-05-08T13:23:39;4.63;;;3.35;;
79562;SDS011;69026;50.980;11.314;2023-05-08T13:26:07;3.97;;;3.33;;
79562;SDS011;69026;50.980;11.314;2023-05-08T13:28:36;3.97;;;3.30;;
79562;SDS011;69026;50.980;11.314;2023-05-08T13:31:02;5.80;;;3.35;;
79562;SDS011;69026;50.980;11.314;2023-05-08T13:33:27;4.13;;;3.58;;
79562;SDS011;69026;50.980;11.314;2023-05-08T13:35:53;3.58;;;3.28;;
79562;SDS011;69026;50.980;11.314;2023-05-08T13:38:19;4.28;;;3.30;;
79562;SDS011;69026;50.980;11.314;2023-05-08T13:40:45;5.22;;;3.90;;
79562;SDS011;69026;50.980;11.314;2023-05-08T13:43:11;3.63;;;3.00;;
79562;SDS011;69026;50.980;11.314;2023-05-08T13:45:37;3.47;;;2.90;;
79562;SDS011;69026;50.980;11.314;2023-05-08T13:48:02;3.92;;;3.47;;
79562;SDS011;69026;50.980;11.314;2023-05-08T13:50:28;6.50;;;3.53;;
79562;SDS011;69026;50.980;11.314;2023-05-08T13:52:54;4.18;;;2.88;;
79562;SDS011;69026;50.980;11.314;2023-05-08T13:55:20;3.30;;;2.90;;
79562;SDS011;69026;50.980;11.314;2023-05-08T13:57:46;3.08;;;2.78;;
79562;SDS011;69026;50.980;11.314;2023-05-08T14:00:13;3.22;;;2.85;;
79562;SDS011;69026;50.980;11.314;2023-05-08T14:02:39;3.35;;;2.75;;
79562;SDS011;69026;50.980;11.314;2023-05-08T14:05:05;3.33;;;2.50;;
79562;SDS011;69026;50.980;11.314;2023-05-08T14:07:34;3.03;;;2.67;;
79562;SDS011;69026;50.980;11.314;2023-05-08T14:10:00;5.93;;;3.67;;
79562;SDS011;69026;50.980;11.314;2023-05-08T14:12:26;3.10;;;2.80;;
79562;SDS011;69026;50.980;11.314;2023-05-08T14:14:52;3.10;;;2.80;;
79562;SDS011;69026;50.980;11.314;2023-05-08T14:17:18;3.20;;;2.80;;
79562;SDS011;69026;50.980;11.314;2023-05-08T14:19:44;3.40;;;3.10;;
79562;SDS011;69026;50.980;11.314;2023-05-08T14:22:10;4.18;;;3.15;;
79562;SDS011;69026;50.980;11.314;2023-05-08T14:24:36;3.88;;;3.22;;
79562;SDS011;69026;50.980;11.314;2023-05-08T14:27:02;3.70;;;3.40;;
79562;SDS011;69026;50.980;11.314;2023-05-08T14:29:31;3.28;;;2.97;;
79562;SDS011;69026;50.980;11.314;2023-05-08T14:31:59;4.28;;;3.10;;
79562;SDS011;69026;50.980;11.314;2023-05-08T14:34:25;3.65;;;2.72;;
79562;SDS011;69026;50.980;11.314;2023-05-08T14:36:51;4.05;;;2.97;;
79562;SDS011;69026;50.980;11.314;2023-05-08T14:39:17;2.80;;;2.35;;
79562;SDS011;69026;50.980;11.314;2023-05-08T14:41:43;6.25;;;2.70;;
79562;SDS011;69026;50.980;11.314;2023-05-08T14:44:09;4.38;;;3.03;;
79562;SDS011;69026;50.980;11.314;2023-05-08T14:46:34;5.05;;;3.08;;
79562;SDS011;69026;50.980;11.314;2023-05-08T14:49:00;3.05;;;2.75;;
79562;SDS011;69026;50.980;11.314;2023-05-08T14:51:26;3.55;;;2.42;;
79562;SDS011;69026;50.980;11.314;2023-05-08T14:53:52;3.42;;;3.05;;
79562;SDS011;69026;50.980;11.314;2023-05-08T14:56:18;2.80;;;2.35;;
79562;SDS011;69026;50.980;11.314;2023-05-08T14:58:48;3.15;;;2.67;;
79562;SDS011;69026;50.980;11.314;2023-05-08T15:01:15;5.35;;;2.30;;
79562;SDS011;69026;50.980;11.314;2023-05-08T15:03:41;4.05;;;2.50;;
79562;SDS011;69026;50.980;11.314;2023-05-08T15:06:07;3.08;;;2.63;;
79562;SDS011;69026;50.980;11.314;2023-05-08T15:08:33;2.45;;;2.25;;
79562;SDS011;69026;50.980;11.314;2023-05-08T15:10:59;3.17;;;2.70;;
79562;SDS011;69026;50.980;11.314;2023-05-08T15:13:24;4.47;;;2.67;;
79562;SDS011;69026;50.980;11.314;2023-05-08T15:15:50;4.13;;;2.70;;
79562;SDS011;69026;50.980;11.314;2023-05-08T15:18:16;4.93;;;2.75;;
79562;SDS011;69026;50.980;11.314;2023-05-08T15:20:42;4.35;;;2.70;;
79562;SDS011;69026;50.980;11.314;2023-05-08T15:23:07;3.38;;;2.30;;
79562;SDS011;69026;50.980;11.314;2023-05-08T15:25:33;3.92;;;2.63;;
79562;SDS011;69026;50.980;11.314;2023-05-08T15:27:59;9.25;;;2.85;;
79562;SDS011;69026;50.980;11.314;2023-05-08T15:30:25;9.50;;;3.10;;
79562;SDS011;69026;50.980;11.314;2023-05-08T15:32:50;6.78;;;2.92;;
79562;SDS011;69026;50.980;11.314;2023-05-08T15:35:17;8.35;;;2.42;;